sensor_id;sensor_type;location;lat;lon;timestamp;pressure;altitude;pressure_sealevel;temperature;humidity
47753;BME280;2038;51.728;6.674;2023-03-31T00:02:21;99786.03;;;12.18;100.00
47753;BME280;2038;51.728;6.674;2023-03-31T00:04:48;99780.53;;;12.09;100.00
47753;BME280;2038;51.728;6.674;2023-03-31T00:07:18;99776.41;;;12.13;100.00
47753;BME280;2038;51.728;6.674;2023-03-31T00:09:49;99771.28;;;12.11;100.00
47753;BME280;2038;51.728;6.674;2023-03-31T00:12:20;99765.28;;;12.11;100.00
47753;BME280;2038;51.728;6.674;2023-03-31T00:14:46;99755.28;;;12.15;100.00
47753;BME280;2038;51.728;6.674;2023-03-31T00:17:13;99759.34;;;12.12;100.00
47753;BME280;2038;51.728;6.674;2023-03-31T00:19:39;99754.78;;;12.05;100.00
47753;BME280;2038;51.728;6.674;2023-03-31T00:22:07;99738.53;;;12.03;100.00
47753;BME280;2038;51.728;6.674;2023-03-31T00:24:34;99739.75;;;12.11;100.00
47753;BME280;2038;51.728;6.674;2023-03-31T00:27:04;99738.91;;;12.12;100.00
47753;BME280;2038;51.728;6.674;2023-03-31T00:29:31;99734.19;;;12.21;100.00
47753;BME280;2038;51.728;6.674;2023-03-31T00:31:58;99726.50;;;12.40;100.00
47753;BME280;2038;51.728;6.674;2023-03-31T00:34:25;99730.72;;;12.40;100.00
47753;BME280;2038;51.728;6.674;2023-03-31T00:36:52;99719.91;;;12.45;100.00
47753;BME280;2038;51.728;6.674;2023-03-31T00:39:21;99715.78;;;12.49;100.00
47753;BME280;2038;51.728;6.674;2023-03-31T00:41:49;99719.97;;;12.47;100.00
47753;BME280;2038;51.728;6.674;2023-03-31T00:44:21;99714.09;;;12.49;100.00
47753;BME280;2038;51.728;6.674;2023-03-31T00:46:54;99701.31;;;12.49;100.00
47753;BME280;2038;51.728;6.674;2023-03-31T00:49:46;99696.97;;;12.47;100.00
47753;BME280;2038;51.728;6.674;2023-03-31T00:54:53;99696.66;;;12.39;100.00
47753;BME280;2038;51.728;6.674;2023-03-31T00:57:25;99690.72;;;12.40;100.00
47753;BME280;2038;51.728;6.674;2023-03-31T00:59:58;99683.56;;;12.52;100.00
47753;BME280;2038;51.728;6.674;2023-03-31T01:02:35;99684.19;;;12.68;100.00
47753;BME280;2038;51.728;6.674;2023-03-31T01:05:06;99680.75;;;12.67;100.00
47753;BME280;2038;51.728;6.674;2023-03-31T01:07:38;99674.78;;;12.66;100.00
47753;BME280;2038;51.728;6.674;2023-03-31T01:10:09;99673.13;;;12.68;100.00
47753;BME280;2038;51.728;6.674;2023-03-31T01:12:40;99666.44;;;12.72;100.00
47753;BME280;2038;51.728;6.674;2023-03-31T01:15:10;99662.72;;;12.64;100.00
47753;BME280;2038;51.728;6.674;2023-03-31T01:17:37;99655.75;;;12.60;100.00
47753;BME280;2038;51.728;6.674;2023-03-31T01:24:23;99651.31;;;12.56;100.00
47753;BME280;2038;51.728;6.674;2023-03-31T01:32:35;99623.84;;;12.50;100.00
47753;BME280;2038;51.728;6.674;2023-03-31T01:35:47;99634.69;;;12.45;100.00
47753;BME280;2038;51.728;6.674;2023-03-31T01:38:45;99630.03;;;12.55;100.00
47753;BME280;2038;51.728;6.674;2023-03-31T01:42:04;99619.47;;;12.48;100.00
47753;BME280;2038;51.728;6.674;2023-03-31T01:44:51;99599.69;;;12.42;100.00
47753;BME280;2038;51.728;6.674;2023-03-31T01:48:00;99587.31;;;12.53;100.00
47753;BME280;2038;51.728;6.674;2023-03-31T01:50:34;99586.91;;;12.42;100.00
47753;BME280;2038;51.728;6.674;2023-03-31T01:53:40;99576.56;;;12.39;100.00
47753;BME280;2038;51.728;6.674;2023-03-31T01:56:37;99573.28;;;12.21;100.00
47753;BME280;2038;51.728;6.674;2023-03-31T01:59:20;99567.09;;;12.16;100.00
47753;BME280;2038;51.728;6.674;2023-03-31T02:02:09;99557.03;;;12.19;100.00
47753;BME280;2038;51.728;6.674;2023-03-31T02:04:47;99561.66;;;12.28;100.00
47753;BME280;2038;51.728;6.674;2023-03-31T02:07:38;99558.84;;;12.22;100.00
47753;BME280;2038;51.728;6.674;2023-03-31T02:10:12;99542.75;;;12.24;100.00
47753;BME280;2038;51.728;6.674;2023-03-31T02:12:41;99547.84;;;12.24;100.00
47753;BME280;2038;51.728;6.674;2023-03-31T02:15:14;99543.09;;;12.33;100.00
47753;BME280;2038;51.728;6.674;2023-03-31T02:17:48;99534.56;;;12.33;100.00
47753;BME280;2038;51.728;6.674;2023-03-31T02:20:20;99532.31;;;12.40;100.00
47753;BME280;2038;51.728;6.674;2023-03-31T02:22:51;99527.78;;;12.33;100.00
47753;BME280;2038;51.728;6.674;2023-03-31T02:25:24;99516.06;;;12.38;100.00
47753;BME280;2038;51.728;6.674;2023-03-31T02:28:00;99509.09;;;12.34;100.00
47753;BME280;2038;51.728;6.674;2023-03-31T02:31:09;99492.41;;;12.44;100.00
47753;BME280;2038;51.728;6.674;2023-03-31T02:33:38;99491.38;;;12.39;100.00
47753;BME280;2038;51.728;6.674;2023-03-31T02:36:04;99490.84;;;12.25;100.00
47753;BME280;2038;51.728;6.674;2023-03-31T02:38:36;99481.22;;;12.18;100.00
47753;BME280;2038;51.728;6.674;2023-03-31T02:41:09;99472.00;;;12.22;100.00
47753;BME280;2038;51.728;6.674;2023-03-31T02:43:35;99472.53;;;12.35;100.00
47753;BME280;2038;51.728;6.674;2023-03-31T02:46:02;99451.03;;;12.30;100.00
47753;BME280;2038;51.728;6.674;2023-03-31T02:48:34;99438.97;;;12.26;100.00
47753;BME280;2038;51.728;6.674;2023-03-31T02:57:02;99417.81;;;12.30;100.00
47753;BME280;2038;51.728;6.674;2023-03-31T03:11:36;99371.31;;;12.16;100.00
47753;BME280;2038;51.728;6.674;2023-03-31T03:17:11;99369.94;;;12.25;100.00
47753;BME280;2038;51.728;6.674;2023-03-31T03:19:43;99367.25;;;12.22;100.00
47753;BME280;2038;51.728;6.674;2023-03-31T03:22:15;99366.66;;;12.29;100.00
47753;BME280;2038;51.728;6.674;2023-03-31T03:24:41;99364.44;;;12.38;100.00
47753;BME280;2038;51.728;6.674;2023-03-31T03:27:07;99359.41;;;12.39;100.00
47753;BME280;2038;51.728;6.674;2023-03-31T03:29:34;99354.66;;;12.26;100.00
47753;BME280;2038;51.728;6.674;2023-03-31T03:32:00;99345.44;;;12.30;100.00
47753;BME280;2038;51.728;6.674;2023-03-31T03:34:26;99336.72;;;12.25;100.00
47753;BME280;2038;51.728;6.674;2023-03-31T03:36:52;99334.56;;;12.35;100.00
47753;BME280;2038;51.728;6.674;2023-03-31T03:39:18;99325.97;;;12.33;100.00
47753;BME280;2038;51.728;6.674;2023-03-31T03:41:45;99312.72;;;12.43;100.00
47753;BME280;2038;51.728;6.674;2023-03-31T03:44:11;99309.16;;;12.40;100.00
47753;BME280;2038;51.728;6.674;2023-03-31T03:46:38;99300.59;;;12.38;100.00
47753;BME280;2038;51.728;6.674;2023-03-31T03:49:04;99288.31;;;12.53;100.00
47753;BME280;2038;51.728;6.674;2023-03-31T03:51:30;99283.94;;;12.49;100.00
47753;BME280;2038;51.728;6.674;2023-03-31T03:53:56;99280.16;;;12.38;100.00
47753;BME280;2038;51.728;6.674;2023-03-31T03:56:23;99278.09;;;12.28;100.00
47753;BME280;2038;51.728;6.674;2023-03-31T03:58:49;99277.25;;;12.29;100.00
47753;BME280;2038;51.728;6.674;2023-03-31T04:01:15;99282.47;;;12.32;100.00
47753;BME280;2038;51.728;6.674;2023-03-31T04:03:43;99279.81;;;12.29;100.00
47753;BME280;2038;51.728;6.674;2023-03-31T04:06:09;99268.09;;;12.34;100.00
47753;BME280;2038;51.728;6.674;2023-03-31T04:08:35;99263.88;;;12.36;100.00
47753;BME280;2038;51.728;6.674;2023-03-31T04:11:02;99249.50;;;12.38;100.00
47753;BME280;2038;51.728;6.674;2023-03-31T04:13:28;99248.72;;;12.40;100.00
47753;BME280;2038;51.728;6.674;2023-03-31T04:15:55;99237.19;;;12.51;100.00
47753;BME280;2038;51.728;6.674;2023-03-31T04:18:21;99232.34;;;12.60;100.00
47753;BME280;2038;51.728;6.674;2023-03-31T04:20:51;99227.94;;;12.55;100.00
47753;BME280;2038;51.728;6.674;2023-03-31T04:23:42;99230.03;;;12.41;100.00
47753;BME280;2038;51.728;6.674;2023-03-31T04:26:16;99224.66;;;12.34;100.00
47753;BME280;2038;51.728;6.674;2023-03-31T04:28:44;99221.28;;;12.35;100.00
47753;BME280;2038;51.728;6.674;2023-03-31T04:31:15;99210.75;;;12.26;100.00
47753;BME280;2038;51.728;6.674;2023-03-31T04:33:58;99194.56;;;12.25;100.00
47753;BME280;2038;51.728;6.674;2023-03-31T04:36:27;99187.78;;;12.26;100.00
47753;BME280;2038;51.728;6.674;2023-03-31T04:38:56;99183.53;;;12.26;100.00
47753;BME280;2038;51.728;6.674;2023-03-31T04:41:24;99178.53;;;12.29;100.00
47753;BME280;2038;51.728;6.674;2023-03-31T04:43:52;99169.00;;;12.24;100.00
47753;BME280;2038;51.728;6.674;2023-03-31T04:46:19;99158.63;;;12.19;100.00
47753;BME280;2038;51.728;6.674;2023-03-31T04:48:45;99149.28;;;12.19;100.00
47753;BME280;2038;51.728;6.674;2023-03-31T04:51:11;99148.41;;;12.19;100.00
47753;BME280;2038;51.728;6.674;2023-03-31T04:53:40;99132.94;;;12.16;100.00
47753;BME280;2038;51.728;6.674;2023-03-31T04:56:06;99122.94;;;12.22;100.00
47753;BME280;2038;51.728;6.674;2023-03-31T04:58:33;99113.53;;;12.21;100.00
47753;BME280;2038;51.728;6.674;2023-03-31T05:00:59;99113.25;;;12.12;100.00
47753;BME280;2038;51.728;6.674;2023-03-31T05:03:25;99114.09;;;12.12;100.00
47753;BME280;2038;51.728;6.674;2023-03-31T05:05:51;99097.09;;;12.13;100.00
47753;BME280;2038;51.728;6.674;2023-03-31T05:08:18;99093.44;;;12.32;100.00
47753;BME280;2038;51.728;6.674;2023-03-31T05:10:44;99096.88;;;12.32;100.00
47753;BME280;2038;51.728;6.674;2023-03-31T05:13:10;99087.13;;;12.20;100.00
47753;BME280;2038;51.728;6.674;2023-03-31T05:15:38;99090.38;;;12.15;100.00
47753;BME280;2038;51.728;6.674;2023-03-31T05:18:05;99077.94;;;12.26;100.00
47753;BME280;2038;51.728;6.674;2023-03-31T05:20:32;99082.25;;;12.27;100.00
47753;BME280;2038;51.728;6.674;2023-03-31T05:22:59;99069.41;;;12.25;100.00
47753;BME280;2038;51.728;6.674;2023-03-31T05:25:25;99064.53;;;12.33;100.00
47753;BME280;2038;51.728;6.674;2023-03-31T05:27:57;99070.34;;;12.27;100.00
47753;BME280;2038;51.728;6.674;2023-03-31T05:30:25;99060.06;;;12.26;100.00
47753;BME280;2038;51.728;6.674;2023-03-31T05:32:52;99055.44;;;12.14;100.00
47753;BME280;2038;51.728;6.674;2023-03-31T05:35:18;99051.13;;;12.11;100.00
47753;BME280;2038;51.728;6.674;2023-03-31T05:37:45;99049.38;;;12.10;100.00
47753;BME280;2038;51.728;6.674;2023-03-31T05:40:11;99048.81;;;12.19;100.00
47753;BME280;2038;51.728;6.674;2023-03-31T05:42:38;99048.81;;;12.19;100.00
47753;BME280;2038;51.728;6.674;2023-03-31T05:45:04;99042.47;;;12.08;100.00
47753;BME280;2038;51.728;6.674;2023-03-31T05:47:31;99043.34;;;12.08;100.00
47753;BME280;2038;51.728;6.674;2023-03-31T05:49:58;99027.34;;;12.14;100.00
47753;BME280;2038;51.728;6.674;2023-03-31T05:52:24;99033.50;;;12.20;100.00
47753;BME280;2038;51.728;6.674;2023-03-31T05:54:50;99023.25;;;12.19;100.00
47753;BME280;2038;51.728;6.674;2023-03-31T05:57:16;99018.47;;;12.30;100.00
47753;BME280;2038;51.728;6.674;2023-03-31T05:59:43;99020.25;;;12.32;100.00
47753;BME280;2038;51.728;6.674;2023-03-31T06:02:12;99013.44;;;12.31;100.00
47753;BME280;2038;51.728;6.674;2023-03-31T06:04:38;99012.59;;;12.32;100.00
47753;BME280;2038;51.728;6.674;2023-03-31T06:07:04;99010.38;;;12.43;100.00
47753;BME280;2038;51.728;6.674;2023-03-31T06:09:31;99010.38;;;12.43;100.00
47753;BME280;2038;51.728;6.674;2023-03-31T06:11:57;99007.63;;;12.37;100.00
47753;BME280;2038;51.728;6.674;2023-03-31T06:14:23;99006.13;;;12.43;100.00
47753;BME280;2038;51.728;6.674;2023-03-31T06:16:49;99002.06;;;12.50;100.00
47753;BME280;2038;51.728;6.674;2023-03-31T06:19:16;99004.56;;;12.48;100.00
47753;BME280;2038;51.728;6.674;2023-03-31T06:21:42;99002.72;;;12.44;100.00
47753;BME280;2038;51.728;6.674;2023-03-31T06:24:08;99002.06;;;12.50;100.00
47753;BME280;2038;51.728;6.674;2023-03-31T06:26:35;98998.78;;;12.54;100.00
47753;BME280;2038;51.728;6.674;2023-03-31T06:29:01;99002.06;;;12.50;100.00
47753;BME280;2038;51.728;6.674;2023-03-31T06:31:27;98992.78;;;12.53;100.00
47753;BME280;2038;51.728;6.674;2023-03-31T06:33:54;98977.66;;;12.59;100.00
47753;BME280;2038;51.728;6.674;2023-03-31T06:36:21;98981.03;;;12.58;100.00
47753;BME280;2038;51.728;6.674;2023-03-31T06:38:48;98967.25;;;12.53;100.00
47753;BME280;2038;51.728;6.674;2023-03-31T06:41:16;98965.72;;;12.60;100.00
47753;BME280;2038;51.728;6.674;2023-03-31T06:43:43;98976.25;;;12.71;100.00
47753;BME280;2038;51.728;6.674;2023-03-31T06:46:10;98974.22;;;12.59;100.00
47753;BME280;2038;51.728;6.674;2023-03-31T06:48:36;98973.44;;;12.61;100.00
47753;BME280;2038;51.728;6.674;2023-03-31T06:51:04;98971.47;;;12.53;100.00
47753;BME280;2038;51.728;6.674;2023-03-31T06:53:32;98976.72;;;12.57;100.00
47753;BME280;2038;51.728;6.674;2023-03-31T06:55:59;98973.31;;;12.57;100.00
47753;BME280;2038;51.728;6.674;2023-03-31T06:58:26;98968.75;;;12.47;100.00
47753;BME280;2038;51.728;6.674;2023-03-31T07:00:52;98962.59;;;12.40;100.00
47753;BME280;2038;51.728;6.674;2023-03-31T07:03:18;98957.63;;;12.45;100.00
47753;BME280;2038;51.728;6.674;2023-03-31T07:05:51;98965.19;;;12.42;100.00
47753;BME280;2038;51.728;6.674;2023-03-31T07:08:19;98968.63;;;12.42;100.00
47753;BME280;2038;51.728;6.674;2023-03-31T07:10:47;98972.34;;;12.53;100.00
47753;BME280;2038;51.728;6.674;2023-03-31T07:13:17;98969.72;;;12.50;100.00
47753;BME280;2038;51.728;6.674;2023-03-31T07:15:46;98974.53;;;12.41;100.00
47753;BME280;2038;51.728;6.674;2023-03-31T07:18:13;98966.81;;;12.38;100.00
47753;BME280;2038;51.728;6.674;2023-03-31T07:20:41;98959.28;;;12.44;100.00
47753;BME280;2038;51.728;6.674;2023-03-31T07:23:08;98946.63;;;12.47;100.00
47753;BME280;2038;51.728;6.674;2023-03-31T07:25:35;98948.88;;;12.37;100.00
47753;BME280;2038;51.728;6.674;2023-03-31T07:28:02;98943.84;;;12.40;100.00
47753;BME280;2038;51.728;6.674;2023-03-31T07:30:30;98943.75;;;12.37;100.00
47753;BME280;2038;51.728;6.674;2023-03-31T07:32:56;98942.13;;;12.39;100.00
47753;BME280;2038;51.728;6.674;2023-03-31T07:35:23;98939.34;;;12.31;100.00
47753;BME280;2038;51.728;6.674;2023-03-31T07:37:50;98930.81;;;12.31;100.00
47753;BME280;2038;51.728;6.674;2023-03-31T07:40:23;98926.69;;;12.36;100.00
47753;BME280;2038;51.728;6.674;2023-03-31T07:42:51;98932.94;;;12.45;100.00
47753;BME280;2038;51.728;6.674;2023-03-31T07:45:20;98932.81;;;12.41;100.00
47753;BME280;2038;51.728;6.674;2023-03-31T07:47:47;98932.06;;;12.45;100.00
47753;BME280;2038;51.728;6.674;2023-03-31T07:50:15;98933.50;;;12.35;100.00
47753;BME280;2038;51.728;6.674;2023-03-31T07:52:42;98936.88;;;12.34;100.00
47753;BME280;2038;51.728;6.674;2023-03-31T07:55:09;98919.72;;;12.30;100.00
47753;BME280;2038;51.728;6.674;2023-03-31T07:57:36;98925.94;;;12.40;100.00
47753;BME280;2038;51.728;6.674;2023-03-31T08:00:07;98913.06;;;12.35;100.00
47753;BME280;2038;51.728;6.674;2023-03-31T08:02:37;98932.84;;;12.42;100.00
47753;BME280;2038;51.728;6.674;2023-03-31T08:05:05;98930.31;;;12.44;100.00
47753;BME280;2038;51.728;6.674;2023-03-31T08:07:36;98921.44;;;12.59;100.00
47753;BME280;2038;51.728;6.674;2023-03-31T08:10:05;98919.69;;;12.58;100.00
47753;BME280;2038;51.728;6.674;2023-03-31T08:12:33;98922.03;;;12.51;100.00
47753;BME280;2038;51.728;6.674;2023-03-31T08:15:00;98914.66;;;12.61;100.00
47753;BME280;2038;51.728;6.674;2023-03-31T08:17:26;98912.63;;;12.50;100.00
47753;BME280;2038;51.728;6.674;2023-03-31T08:19:53;98908.13;;;12.41;100.00
47753;BME280;2038;51.728;6.674;2023-03-31T08:22:19;98918.63;;;12.50;100.00
47753;BME280;2038;51.728;6.674;2023-03-31T08:24:46;98916.19;;;12.55;100.00
47753;BME280;2038;51.728;6.674;2023-03-31T08:27:12;98907.53;;;12.50;100.00
47753;BME280;2038;51.728;6.674;2023-03-31T08:29:39;98910.34;;;12.59;100.00
47753;BME280;2038;51.728;6.674;2023-03-31T08:32:06;98909.41;;;12.55;100.00
47753;BME280;2038;51.728;6.674;2023-03-31T08:34:33;98895.13;;;12.63;100.00
47753;BME280;2038;51.728;6.674;2023-03-31T08:36:59;98899.25;;;12.58;100.00
47753;BME280;2038;51.728;6.674;2023-03-31T08:39:25;98887.50;;;12.65;100.00
47753;BME280;2038;51.728;6.674;2023-03-31T08:42:03;98893.81;;;12.78;100.00
47753;BME280;2038;51.728;6.674;2023-03-31T08:44:39;98889.81;;;12.87;100.00
47753;BME280;2038;51.728;6.674;2023-03-31T08:47:17;98890.44;;;12.79;100.00
47753;BME280;2038;51.728;6.674;2023-03-31T08:49:50;98889.06;;;12.91;100.00
47753;BME280;2038;51.728;6.674;2023-03-31T08:52:34;98885.63;;;12.91;100.00
47753;BME280;2038;51.728;6.674;2023-03-31T08:55:17;98879.41;;;12.80;100.00
47753;BME280;2038;51.728;6.674;2023-03-31T09:00:37;98876.50;;;12.68;100.00
47753;BME280;2038;51.728;6.674;2023-03-31T09:06:52;98872.22;;;12.66;100.00
47753;BME280;2038;51.728;6.674;2023-03-31T09:15:37;98851.22;;;12.78;100.00
47753;BME280;2038;51.728;6.674;2023-03-31T09:18:34;98832.63;;;12.84;100.00
47753;BME280;2038;51.728;6.674;2023-03-31T09:24:09;98843.38;;;12.72;100.00
47753;BME280;2038;51.728;6.674;2023-03-31T09:26:50;98858.63;;;12.69;100.00
47753;BME280;2038;51.728;6.674;2023-03-31T09:32:21;98849.22;;;12.68;100.00
47753;BME280;2038;51.728;6.674;2023-03-31T09:35:11;98845.16;;;12.75;100.00
47753;BME280;2038;51.728;6.674;2023-03-31T09:37:41;98844.75;;;12.91;100.00
47753;BME280;2038;51.728;6.674;2023-03-31T09:40:15;98839.88;;;13.01;100.00
47753;BME280;2038;51.728;6.674;2023-03-31T09:43:05;98831.66;;;13.11;100.00
47753;BME280;2038;51.728;6.674;2023-03-31T09:45:34;98825.22;;;13.27;100.00
47753;BME280;2038;51.728;6.674;2023-03-31T09:48:03;98823.53;;;13.29;100.00
47753;BME280;2038;51.728;6.674;2023-03-31T09:51:26;98824.09;;;13.52;100.00
47753;BME280;2038;51.728;6.674;2023-03-31T09:53:44;98819.56;;;13.79;100.00
47753;BME280;2038;51.728;6.674;2023-03-31T09:59:14;98822.22;;;14.26;100.00
47753;BME280;2038;51.728;6.674;2023-03-31T10:01:48;98812.34;;;14.42;100.00
47753;BME280;2038;51.728;6.674;2023-03-31T10:04:25;98803.97;;;14.52;100.00
47753;BME280;2038;51.728;6.674;2023-03-31T10:06:55;98817.22;;;14.75;100.00
47753;BME280;2038;51.728;6.674;2023-03-31T10:09:29;98810.63;;;14.89;100.00
47753;BME280;2038;51.728;6.674;2023-03-31T10:12:08;98811.53;;;14.93;100.00
47753;BME280;2038;51.728;6.674;2023-03-31T10:14:51;98806.41;;;14.93;100.00
47753;BME280;2038;51.728;6.674;2023-03-31T10:17:23;98809.00;;;14.94;100.00
47753;BME280;2038;51.728;6.674;2023-03-31T10:20:11;98806.31;;;14.87;100.00
47753;BME280;2038;51.728;6.674;2023-03-31T10:22:44;98798.25;;;14.66;100.00
47753;BME280;2038;51.728;6.674;2023-03-31T10:25:21;98789.06;;;14.32;100.00
47753;BME280;2038;51.728;6.674;2023-03-31T10:27:54;98793.06;;;14.19;100.00
47753;BME280;2038;51.728;6.674;2023-03-31T10:30:27;98808.09;;;14.02;100.00
47753;BME280;2038;51.728;6.674;2023-03-31T10:33:04;98801.25;;;14.01;100.00
47753;BME280;2038;51.728;6.674;2023-03-31T10:35:43;98789.19;;;13.96;100.00
47753;BME280;2038;51.728;6.674;2023-03-31T10:38:23;98787.66;;;14.05;100.00
47753;BME280;2038;51.728;6.674;2023-03-31T10:40:55;98780.28;;;14.19;100.00
47753;BME280;2038;51.728;6.674;2023-03-31T10:43:26;98782.84;;;14.19;100.00
47753;BME280;2038;51.728;6.674;2023-03-31T10:46:06;98782.91;;;14.24;100.00
47753;BME280;2038;51.728;6.674;2023-03-31T10:48:35;98773.84;;;14.41;100.00
47753;BME280;2038;51.728;6.674;2023-03-31T10:51:13;98785.25;;;14.55;100.00
47753;BME280;2038;51.728;6.674;2023-03-31T10:53:45;98785.41;;;14.66;100.00
47753;BME280;2038;51.728;6.674;2023-03-31T10:59:06;98787.91;;;14.60;100.00
47753;BME280;2038;51.728;6.674;2023-03-31T11:16:39;98782.38;;;14.86;100.00
47753;BME280;2038;51.728;6.674;2023-03-31T11:22:33;98777.06;;;14.76;100.00
47753;BME280;2038;51.728;6.674;2023-03-31T11:25:15;98782.84;;;14.64;100.00
47753;BME280;2038;51.728;6.674;2023-03-31T11:28:17;98767.16;;;14.47;100.00
47753;BME280;2038;51.728;6.674;2023-03-31T11:31:21;98769.44;;;14.34;100.00
47753;BME280;2038;51.728;6.674;2023-03-31T11:40:00;98774.94;;;14.52;100.00
47753;BME280;2038;51.728;6.674;2023-03-31T11:42:56;98770.88;;;14.65;100.00
47753;BME280;2038;51.728;6.674;2023-03-31T11:48:53;98764.63;;;14.49;99.38
47753;BME280;2038;51.728;6.674;2023-03-31T11:51:46;98760.34;;;14.48;100.00
47753;BME280;2038;51.728;6.674;2023-03-31T11:54:53;98758.00;;;14.60;99.52
47753;BME280;2038;51.728;6.674;2023-03-31T11:57:45;98752.88;;;14.62;98.92
47753;BME280;2038;51.728;6.674;2023-03-31T12:00:29;98760.69;;;14.68;98.08
47753;BME280;2038;51.728;6.674;2023-03-31T12:03:23;98760.47;;;14.57;99.68
47753;BME280;2038;51.728;6.674;2023-03-31T12:06:13;98754.66;;;14.66;99.36
47753;BME280;2038;51.728;6.674;2023-03-31T12:09:20;98756.63;;;14.82;100.00
47753;BME280;2038;51.728;6.674;2023-03-31T12:12:00;98754.25;;;14.92;100.00
47753;BME280;2038;51.728;6.674;2023-03-31T12:15:02;98757.00;;;15.03;99.12
47753;BME280;2038;51.728;6.674;2023-03-31T12:17:46;98759.69;;;15.11;99.62
47753;BME280;2038;51.728;6.674;2023-03-31T12:20:31;98760.56;;;15.14;98.31
47753;BME280;2038;51.728;6.674;2023-03-31T12:23:00;98757.78;;;14.99;98.01
47753;BME280;2038;51.728;6.674;2023-03-31T12:25:41;98749.84;;;14.85;97.50
47753;BME280;2038;51.728;6.674;2023-03-31T12:28:17;98744.00;;;14.94;98.91
47753;BME280;2038;51.728;6.674;2023-03-31T12:30:46;98740.66;;;14.98;98.53
47753;BME280;2038;51.728;6.674;2023-03-31T12:51:21;98723.97;;;15.26;96.99
47753;BME280;2038;51.728;6.674;2023-03-31T13:04:36;98700.72;;;15.17;95.22
47753;BME280;2038;51.728;6.674;2023-03-31T13:07:04;98697.38;;;15.21;95.35
47753;BME280;2038;51.728;6.674;2023-03-31T13:12:37;98705.25;;;15.33;96.31
47753;BME280;2038;51.728;6.674;2023-03-31T13:15:04;98702.59;;;15.27;94.60
47753;BME280;2038;51.728;6.674;2023-03-31T13:17:38;98697.44;;;15.24;95.27
47753;BME280;2038;51.728;6.674;2023-03-31T13:20:27;98694.94;;;15.30;95.20
47753;BME280;2038;51.728;6.674;2023-03-31T13:25:51;98703.00;;;15.53;95.91
47753;BME280;2038;51.728;6.674;2023-03-31T13:34:05;98689.56;;;15.75;94.07
47753;BME280;2038;51.728;6.674;2023-03-31T13:49:26;98667.56;;;15.98;92.71
47753;BME280;2038;51.728;6.674;2023-03-31T13:52:10;98665.81;;;15.93;93.28
47753;BME280;2038;51.728;6.674;2023-03-31T13:55:00;98662.44;;;16.00;91.35
47753;BME280;2038;51.728;6.674;2023-03-31T13:57:57;98656.34;;;15.90;91.69
47753;BME280;2038;51.728;6.674;2023-03-31T14:06:49;98652.81;;;15.82;91.40
47753;BME280;2038;51.728;6.674;2023-03-31T14:12:39;98646.75;;;15.72;91.13
47753;BME280;2038;51.728;6.674;2023-03-31T14:15:05;98632.94;;;15.66;91.23
47753;BME280;2038;51.728;6.674;2023-03-31T14:17:43;98652.03;;;15.87;91.03
47753;BME280;2038;51.728;6.674;2023-03-31T14:29:43;98648.09;;;14.83;100.00
47753;BME280;2038;51.728;6.674;2023-03-31T14:32:36;98619.94;;;14.86;100.00
47753;BME280;2038;51.728;6.674;2023-03-31T14:35:34;98628.53;;;14.89;100.00
47753;BME280;2038;51.728;6.674;2023-03-31T14:38:23;98633.88;;;15.05;100.00
47753;BME280;2038;51.728;6.674;2023-03-31T14:40:54;98619.41;;;15.10;99.91
47753;BME280;2038;51.728;6.674;2023-03-31T14:43:31;98622.88;;;15.13;99.01
47753;BME280;2038;51.728;6.674;2023-03-31T14:46:01;98616.84;;;15.08;97.02
47753;BME280;2038;51.728;6.674;2023-03-31T14:48:37;98621.97;;;15.08;96.62
47753;BME280;2038;51.728;6.674;2023-03-31T14:51:11;98637.34;;;15.08;95.94
47753;BME280;2038;51.728;6.674;2023-03-31T14:53:39;98626.28;;;15.12;97.10
47753;BME280;2038;51.728;6.674;2023-03-31T14:56:14;98628.84;;;15.14;97.35
47753;BME280;2038;51.728;6.674;2023-03-31T14:58:51;98628.03;;;15.15;97.21
47753;BME280;2038;51.728;6.674;2023-03-31T15:01:29;98618.56;;;15.11;97.44
47753;BME280;2038;51.728;6.674;2023-03-31T15:04:10;98615.25;;;15.21;98.68
47753;BME280;2038;51.728;6.674;2023-03-31T15:06:40;98622.13;;;15.22;99.08
47753;BME280;2038;51.728;6.674;2023-03-31T15:09:18;98622.94;;;15.16;98.82
47753;BME280;2038;51.728;6.674;2023-03-31T15:11:56;98613.16;;;14.92;98.27
47753;BME280;2038;51.728;6.674;2023-03-31T15:14:30;98624.09;;;14.76;97.99
47753;BME280;2038;51.728;6.674;2023-03-31T15:16:59;98623.19;;;14.74;99.41
47753;BME280;2038;51.728;6.674;2023-03-31T15:19:29;98615.34;;;14.65;100.00
47753;BME280;2038;51.728;6.674;2023-03-31T15:22:15;98599.19;;;14.69;99.42
47753;BME280;2038;51.728;6.674;2023-03-31T15:24:45;98603.56;;;14.78;99.68
47753;BME280;2038;51.728;6.674;2023-03-31T15:27:33;98594.91;;;14.70;98.64
47753;BME280;2038;51.728;6.674;2023-03-31T15:30:07;98602.53;;;14.65;97.02
47753;BME280;2038;51.728;6.674;2023-03-31T15:32:39;98600.84;;;14.64;97.26
47753;BME280;2038;51.728;6.674;2023-03-31T15:35:24;98596.44;;;14.56;96.18
47753;BME280;2038;51.728;6.674;2023-03-31T15:37:54;98599.72;;;14.47;95.35
47753;BME280;2038;51.728;6.674;2023-03-31T15:40:28;98595.44;;;14.49;95.33
47753;BME280;2038;51.728;6.674;2023-03-31T15:42:58;98597.75;;;14.34;95.90
47753;BME280;2038;51.728;6.674;2023-03-31T15:48:31;98595.44;;;13.98;94.49
47753;BME280;2038;51.728;6.674;2023-03-31T15:51:29;98603.91;;;13.94;95.22
47753;BME280;2038;51.728;6.674;2023-03-31T15:53:59;98600.75;;;14.07;96.43
47753;BME280;2038;51.728;6.674;2023-03-31T15:56:43;98607.34;;;13.94;96.18
47753;BME280;2038;51.728;6.674;2023-03-31T15:59:29;98605.91;;;14.10;96.60
47753;BME280;2038;51.728;6.674;2023-03-31T16:02:16;98599.84;;;14.03;96.77
47753;BME280;2038;51.728;6.674;2023-03-31T16:04:54;98608.38;;;14.04;96.64
47753;BME280;2038;51.728;6.674;2023-03-31T16:07:32;98605.91;;;14.10;97.08
47753;BME280;2038;51.728;6.674;2023-03-31T16:10:01;98605.91;;;14.10;97.32
47753;BME280;2038;51.728;6.674;2023-03-31T16:12:58;98617.88;;;14.13;97.94
47753;BME280;2038;51.728;6.674;2023-03-31T16:15:48;98600.78;;;14.10;98.39
47753;BME280;2038;51.728;6.674;2023-03-31T16:18:32;98608.34;;;14.02;99.96